Time;durP1;ratioP1;P1;durP2;ratioP2;P2;SDS_P1;SDS_P2;PMS_P1;PMS_P2;Temp;Humidity;BMP_temperature;BMP_pressure;BME280_temperature;BME280_humidity;BME280_pressure;Samples;Min_cycle;Max_cycle;Signal;HPM_P1;HPM_P2
2021/08/13 00:00:30;;;;;;;0.20;0.20;;;20.80;99.90;;;;;;5099957;28;20183;-75
2021/08/13 00:02:55;;;;;;;0.20;0.20;;;20.70;99.90;;;;;;5101755;28;20167;-74
2021/08/13 00:05:22;;;;;;;1.38;0.52;;;20.70;99.90;;;;;;5092287;28;20195;-75
2021/08/13 00:07:47;;;;;;;4.45;1.35;;;20.70;99.90;;;;;;5086746;28;20207;-74
2021/08/13 00:10:14;;;;;;;0.88;0.88;;;20.70;99.90;;;;;;5095867;28;20186;-75
2021/08/13 00:12:40;;;;;;;1.48;1.35;;;20.70;99.90;;;;;;5098646;28;20167;-75
2021/08/13 00:15:06;;;;;;;0.20;0.20;;;20.70;99.90;;;;;;5083943;28;20188;-75
2021/08/13 00:17:32;;;;;;;0.17;0.17;;;20.70;99.90;;;;;;5089075;28;20172;-75
2021/08/13 00:19:58;;;;;;;0.20;0.20;;;20.90;99.90;;;;;;5080686;28;20592;-75
2021/08/13 00:22:24;;;;;;;0.88;0.88;;;20.90;99.90;;;;;;5076091;28;20231;-74
2021/08/13 00:24:51;;;;;;;5.57;1.17;;;20.80;99.90;;;;;;5086158;28;20250;-74
2021/08/13 00:27:17;;;;;;;0.40;0.40;;;20.80;99.90;;;;;;5086955;28;20203;-74
2021/08/13 00:29:43;;;;;;;0.32;0.32;;;20.70;99.90;;;;;;5088168;28;20214;-75
2021/08/13 00:32:09;;;;;;;0.73;0.73;;;20.70;99.90;;;;;;5086495;28;20172;-75
2021/08/13 00:34:35;;;;;;;0.50;0.50;;;20.70;99.90;;;;;;5098340;28;20228;-74
2021/08/13 00:37:01;;;;;;;0.52;0.52;;;20.60;99.90;;;;;;5094859;28;20621;-75
2021/08/13 00:39:27;;;;;;;0.75;0.75;;;20.60;99.90;;;;;;5104550;28;20199;-74
2021/08/13 00:41:53;;;;;;;1.50;1.20;;;20.60;99.90;;;;;;5074131;28;20178;-74
2021/08/13 00:44:19;;;;;;;0.25;0.25;;;20.60;99.90;;;;;;5100950;28;20168;-74
2021/08/13 00:46:45;;;;;;;9.88;3.10;;;20.60;99.90;;;;;;5099102;28;20233;-74
2021/08/13 00:49:18;;;;;;;0.50;0.50;;;20.50;99.90;;;;;;5108716;27;20564;-74
2021/08/13 00:51:44;;;;;;;0.60;0.60;;;20.50;99.90;;;;;;5087047;28;20217;-75
2021/08/13 00:54:10;;;;;;;0.73;0.73;;;20.50;99.90;;;;;;5087560;28;20179;-74
2021/08/13 00:56:36;;;;;;;0.10;0.10;;;20.60;99.90;;;;;;5094324;28;20305;-73
2021/08/13 00:59:03;;;;;;;1.60;0.82;;;20.60;99.90;;;;;;5090506;28;20176;-74
2021/08/13 01:01:31;;;;;;;9.60;1.23;;;20.60;99.90;;;;;;5101312;28;20163;-74
2021/08/13 01:03:57;;;;;;;0.35;0.35;;;20.60;99.90;;;;;;5087623;28;20159;-75
2021/08/13 01:06:23;;;;;;;0.30;0.30;;;20.50;99.90;;;;;;5096179;28;20164;-75
2021/08/13 01:08:49;;;;;;;0.88;0.88;;;20.60;99.90;;;;;;5094766;28;20195;-75
2021/08/13 01:11:39;;;;;;;2.05;1.38;;;20.60;99.90;;;;;;5086290;28;20192;-75
2021/08/13 01:14:08;;;;;;;0.10;0.10;;;20.60;99.90;;;;;;5073416;28;20167;-75
2021/08/13 01:16:37;;;;;;;0.63;0.63;;;20.50;99.90;;;;;;5093875;28;20175;-75
2021/08/13 01:19:39;;;;;;;1.25;1.20;;;20.50;99.90;;;;;;5096834;28;20160;-75
2021/08/13 01:22:17;;;;;;;0.98;0.95;;;20.60;99.90;;;;;;5075113;28;20218;-75
2021/08/13 01:24:47;;;;;;;0.98;0.82;;;20.60;99.90;;;;;;5093776;28;20196;-75
2021/08/13 01:27:17;;;;;;;0.38;0.38;;;20.40;99.90;;;;;;5098967;28;20531;-75
2021/08/13 01:29:45;;;;;;;1.15;1.10;;;20.30;99.90;;;;;;5088298;28;20164;-75
2021/08/13 01:32:17;;;;;;;0.50;0.50;;;20.30;99.90;;;;;;5096570;28;20196;-75
2021/08/13 01:34:47;;;;;;;1.42;1.38;;;20.30;99.90;;;;;;5095262;28;20222;-75
2021/08/13 01:37:14;;;;;;;0.52;0.52;;;20.30;99.90;;;;;;5088894;28;20172;-75
2021/08/13 01:39:43;;;;;;;6.32;2.78;;;20.50;99.90;;;;;;5100814;28;20172;-75
2021/08/13 01:42:10;;;;;;;0.43;0.43;;;20.60;99.90;;;;;;5087870;28;20195;-75
2021/08/13 01:44:38;;;;;;;0.57;0.57;;;20.50;99.90;;;;;;5092993;28;20172;-75
2021/08/13 01:47:05;;;;;;;0.25;0.25;;;20.50;99.90;;;;;;5095996;28;20167;-75
2021/08/13 01:49:32;;;;;;;1.00;0.47;;;20.70;99.90;;;;;;5087235;28;20167;-75
2021/08/13 01:51:59;;;;;;;0.68;0.68;;;20.90;99.90;;;;;;5097571;28;20199;-75
2021/08/13 01:54:26;;;;;;;0.98;0.88;;;21.00;99.90;;;;;;5091999;28;20254;-75
2021/08/13 01:56:54;;;;;;;0.43;0.43;;;21.10;99.90;;;;;;5091336;28;20171;-75
2021/08/13 01:59:21;;;;;;;0.90;0.77;;;20.90;99.90;;;;;;5092287;28;20176;-75
2021/08/13 02:01:47;;;;;;;0.10;0.10;;;20.90;99.90;;;;;;5072305;28;20195;-75
2021/08/13 02:04:20;;;;;;;0.32;0.32;;;20.90;99.90;;;;;;5082980;28;20164;-75
2021/08/13 02:06:47;;;;;;;0.77;0.77;;;21.00;99.90;;;;;;5080980;28;20164;-76
2021/08/13 02:09:14;;;;;;;1.13;1.05;;;20.80;99.90;;;;;;5075009;28;20196;-76
2021/08/13 02:11:42;;;;;;;0.20;0.20;;;20.80;99.90;;;;;;5086595;28;20191;-76
2021/08/13 02:14:09;;;;;;;0.45;0.40;;;21.00;99.90;;;;;;5075467;28;20163;-76
2021/08/13 02:16:36;;;;;;;0.50;0.50;;;20.90;99.90;;;;;;5080067;28;20187;-76
2021/08/13 02:19:19;;;;;;;1.23;0.43;;;21.10;99.90;;;;;;5083506;28;20214;-76
2021/08/13 02:21:47;;;;;;;2.38;1.45;;;21.10;99.90;;;;;;5071866;28;20203;-76
2021/08/13 02:24:17;;;;;;;0.73;0.73;;;21.10;99.90;;;;;;5081157;28;20247;-77
2021/08/13 02:26:48;;;;;;;2.20;2.00;;;21.00;99.90;;;;;;5065192;28;20272;-76
2021/08/13 02:29:14;;;;;;;0.15;0.13;;;21.00;99.90;;;;;;5084624;28;20188;-76
2021/08/13 02:31:40;;;;;;;1.45;0.85;;;21.10;99.90;;;;;;5073218;28;20876;-77
2021/08/13 02:34:06;;;;;;;0.40;0.40;;;20.80;99.90;;;;;;5084247;28;20157;-78
2021/08/13 02:36:43;;;;;;;0.85;0.85;;;20.80;99.90;;;;;;5077995;28;20223;-76
2021/08/13 02:39:32;;;;;;;0.30;0.30;;;20.70;99.90;;;;;;5075291;28;20173;-78
2021/08/13 02:42:03;;;;;;;0.60;0.60;;;20.50;99.90;;;;;;5058848;28;20228;-75
2021/08/13 02:44:33;;;;;;;1.55;1.02;;;20.70;99.90;;;;;;5080844;28;20196;-75
2021/08/13 02:47:05;;;;;;;0.63;0.63;;;20.70;99.90;;;;;;5081103;28;20309;-77
2021/08/13 02:49:35;;;;;;;0.20;0.20;;;20.70;99.90;;;;;;5073113;28;20172;-78
2021/08/13 02:52:06;;;;;;;0.52;0.52;;;20.80;99.90;;;;;;5084674;28;20157;-75
2021/08/13 02:54:34;;;;;;;0.93;0.63;;;20.80;99.90;;;;;;5078876;28;20172;-77
2021/08/13 02:57:02;;;;;;;0.30;0.30;;;20.30;99.90;;;;;;5073833;28;20230;-76
2021/08/13 02:59:31;;;;;;;0.30;0.30;;;20.10;99.90;;;;;;5085811;28;20164;-76
2021/08/13 03:02:01;;;;;;;0.43;0.43;;;20.20;99.90;;;;;;5073990;28;20153;-76
2021/08/13 03:04:31;;;;;;;0.40;0.40;;;20.10;99.90;;;;;;5079180;28;20175;-75
2021/08/13 03:06:58;;;;;;;9.23;1.13;;;20.10;99.90;;;;;;5079218;28;20325;-75
2021/08/13 03:09:26;;;;;;;1.75;0.73;;;20.20;99.90;;;;;;5073231;28;20171;-77
2021/08/13 03:11:54;;;;;;;0.73;0.73;;;20.30;99.90;;;;;;5054607;28;20164;-75
2021/08/13 03:14:21;;;;;;;0.20;0.20;;;20.40;99.90;;;;;;5081578;28;20164;-75
2021/08/13 03:16:50;;;;;;;0.52;0.52;;;20.00;99.90;;;;;;5078511;28;20217;-76
2021/08/13 03:19:16;;;;;;;0.13;0.13;;;20.10;99.90;;;;;;5071117;28;20177;-76
2021/08/13 03:21:43;;;;;;;0.28;0.28;;;20.40;99.90;;;;;;5085027;28;20239;-76
2021/08/13 03:24:12;;;;;;;0.68;0.68;;;20.30;99.90;;;;;;5074579;28;20224;-75
2021/08/13 03:26:40;;;;;;;1.58;1.30;;;20.10;99.90;;;;;;5076733;28;20224;-76
2021/08/13 03:29:06;;;;;;;0.40;0.40;;;20.00;99.90;;;;;;5080537;28;20259;-76
2021/08/13 03:31:37;;;;;;;0.77;0.77;;;19.60;99.90;;;;;;5072614;28;20173;-76
2021/08/13 03:34:07;;;;;;;0.10;0.10;;;19.80;99.90;;;;;;5083366;28;20165;-76
2021/08/13 03:36:34;;;;;;;0.32;0.32;;;20.10;99.90;;;;;;5077812;28;20238;-75
2021/08/13 03:39:00;;;;;;;0.98;0.55;;;20.20;99.90;;;;;;5073221;28;20173;-76
2021/08/13 03:41:26;;;;;;;1.20;1.08;;;20.40;99.90;;;;;;5084819;28;20228;-76
2021/08/13 03:43:52;;;;;;;0.93;0.70;;;20.20;99.90;;;;;;5070815;28;20171;-76
2021/08/13 03:46:18;;;;;;;0.50;0.50;;;20.30;99.90;;;;;;5079510;28;20193;-77
2021/08/13 03:48:44;;;;;;;1.15;1.15;;;20.20;99.90;;;;;;5079151;28;20680;-75
2021/08/13 03:51:10;;;;;;;1.30;1.08;;;19.90;99.90;;;;;;5073161;28;20211;-75
2021/08/13 03:53:36;;;;;;;0.15;0.15;;;19.90;99.90;;;;;;5083820;28;20195;-75
2021/08/13 03:56:02;;;;;;;2.30;0.63;;;20.20;99.90;;;;;;5073021;28;20167;-75
2021/08/13 03:58:28;;;;;;;1.48;1.38;;;20.20;99.90;;;;;;5078038;28;20182;-78
2021/08/13 04:00:54;;;;;;;1.67;1.58;;;20.10;99.90;;;;;;5079473;28;20199;-76
2021/08/13 04:03:20;;;;;;;0.60;0.60;;;19.90;99.90;;;;;;5070882;28;20251;-75
2021/08/13 04:05:46;;;;;;;0.30;0.30;;;19.80;99.90;;;;;;5084464;28;20180;-75
2021/08/13 04:08:12;;;;;;;0.28;0.28;;;19.80;99.90;;;;;;5074056;28;20195;-75
2021/08/13 04:10:38;;;;;;;0.93;0.93;;;20.00;99.90;;;;;;5076233;28;20161;-78
2021/08/13 04:13:04;;;;;;;3.40;1.45;;;20.10;99.90;;;;;;5081249;28;20188;-75
2021/08/13 04:15:29;;;;;;;0.55;0.55;;;20.10;99.90;;;;;;5071242;28;20232;-75
2021/08/13 04:17:56;;;;;;;0.43;0.43;;;20.30;99.90;;;;;;5082824;28;20255;-75
2021/08/13 04:20:22;;;;;;;1.00;1.00;;;20.00;99.90;;;;;;5075403;28;20172;-75
2021/08/13 04:22:48;;;;;;;0.90;0.52;;;20.10;99.90;;;;;;5075181;28;20172;-76
2021/08/13 04:25:14;;;;;;;0.30;0.30;;;20.10;99.90;;;;;;5083109;28;20771;-77
2021/08/13 04:27:41;;;;;;;1.75;1.25;;;20.10;99.90;;;;;;5070583;28;20261;-75
2021/08/13 04:30:07;;;;;;;1.35;1.25;;;20.00;99.90;;;;;;5081893;28;20211;-75
2021/08/13 04:32:37;;;;;;;0.55;0.55;;;20.00;99.90;;;;;;5074808;28;20480;-76
2021/08/13 04:35:04;;;;;;;0.20;0.20;;;20.10;99.90;;;;;;5073813;28;20189;-74
2021/08/13 04:37:30;;;;;;;0.38;0.38;;;20.40;99.90;;;;;;5083622;28;20203;-75
2021/08/13 04:39:56;;;;;;;2.17;1.85;;;20.80;99.90;;;;;;5072004;28;20191;-76
2021/08/13 04:42:22;;;;;;;0.50;0.47;;;21.10;99.90;;;;;;5077904;28;20236;-77
2021/08/13 04:44:48;;;;;;;0.80;0.80;;;21.30;99.90;;;;;;5077204;28;20179;-76
2021/08/13 04:47:14;;;;;;;1.63;0.80;;;21.70;99.90;;;;;;5071568;28;20219;-77
2021/08/13 04:49:40;;;;;;;0.88;0.88;;;22.10;99.90;;;;;;5082656;28;20183;-77
2021/08/13 04:52:06;;;;;;;0.63;0.63;;;22.30;99.90;;;;;;5062106;28;20191;-77
2021/08/13 04:54:32;;;;;;;0.93;0.93;;;22.60;99.90;;;;;;5067531;28;20168;-76
2021/08/13 04:57:02;;;;;;;0.73;0.73;;;22.70;99.90;;;;;;5079873;28;20506;-77
2021/08/13 04:59:28;;;;;;;1.20;1.15;;;22.90;99.90;;;;;;5070588;28;20231;-77
2021/08/13 05:01:54;;;;;;;0.68;0.68;;;23.00;99.90;;;;;;5083014;28;20239;-77
2021/08/13 05:04:20;;;;;;;0.40;0.40;;;23.00;99.90;;;;;;5073970;28;20178;-76
2021/08/13 05:06:46;;;;;;;0.38;0.38;;;23.40;99.90;;;;;;5074140;28;20164;-76
2021/08/13 05:09:12;;;;;;;0.47;0.47;;;23.80;99.90;;;;;;5080147;28;20627;-77
2021/08/13 05:11:38;;;;;;;0.47;0.47;;;24.00;99.90;;;;;;5070342;28;20175;-77
2021/08/13 05:14:04;;;;;;;0.70;0.70;;;23.80;99.90;;;;;;5081611;28;20213;-77
2021/08/13 05:16:30;;;;;;;0.40;0.40;;;23.50;99.90;;;;;;5074921;28;20228;-77
2021/08/13 05:18:56;;;;;;;0.75;0.75;;;23.70;99.90;;;;;;5073100;28;20251;-76
2021/08/13 05:21:22;;;;;;;1.20;0.45;;;23.40;99.90;;;;;;5083146;28;20205;-77
2021/08/13 05:23:49;;;;;;;1.10;1.00;;;23.00;99.90;;;;;;5068756;28;20259;-77
2021/08/13 05:26:15;;;;;;;2.05;0.70;;;23.10;99.90;;;;;;5079001;28;20176;-76
2021/08/13 05:28:41;;;;;;;0.57;0.57;;;23.30;99.90;;;;;;5077331;28;20213;-76
2021/08/13 05:31:08;;;;;;;0.60;0.57;;;23.70;99.90;;;;;;5071588;28;20704;-77
2021/08/13 05:33:33;;;;;;;1.75;1.20;;;24.30;99.90;;;;;;5081967;28;20195;-77
2021/08/13 05:35:59;;;;;;;20.35;2.38;;;25.00;99.90;;;;;;5074692;28;20186;-77
2021/08/13 05:38:26;;;;;;;1.55;1.45;;;25.10;99.90;;;;;;5080931;28;20178;-76
2021/08/13 05:40:52;;;;;;;3.60;0.95;;;25.40;99.90;;;;;;5082628;28;20609;-77
2021/08/13 05:43:18;;;;;;;0.52;0.52;;;25.50;99.90;;;;;;5075022;28;20254;-76
2021/08/13 05:45:43;;;;;;;0.90;0.75;;;25.70;99.90;;;;;;5086284;28;20186;-76
2021/08/13 05:48:09;;;;;;;1.38;0.88;;;26.30;99.90;;;;;;5076657;28;20216;-77
2021/08/13 05:50:35;;;;;;;2.95;1.05;;;26.80;99.90;;;;;;5081049;28;20243;-76
2021/08/13 05:53:01;;;;;;;1.85;1.30;;;27.60;99.90;;;;;;5083689;28;20228;-76
2021/08/13 05:55:27;;;;;;;0.98;0.98;;;26.70;99.90;;;;;;5073822;28;20171;-75
2021/08/13 05:57:53;;;;;;;0.28;0.28;;;25.80;99.90;;;;;;5085572;28;20217;-76
2021/08/13 06:00:19;;;;;;;0.60;0.60;;;25.30;99.90;;;;;;5077952;28;20172;-78
2021/08/13 06:02:59;;;;;;;1.30;1.20;;;25.90;99.90;;;;;;5077878;28;20203;-78
2021/08/13 06:05:26;;;;;;;2.15;1.13;;;26.70;99.90;;;;;;5085557;28;20286;-78
2021/08/13 06:07:53;;;;;;;0.88;0.88;;;27.70;99.90;;;;;;5073218;28;20248;-78
2021/08/13 06:10:19;;;;;;;1.33;1.23;;;27.30;99.90;;;;;;5080951;28;20176;-77
2021/08/13 06:12:45;;;;;;;0.65;0.65;;;27.40;99.90;;;;;;5079941;28;20195;-77
2021/08/13 06:15:12;;;;;;;1.85;1.65;;;28.00;99.90;;;;;;5072488;28;20204;-78
2021/08/13 06:17:40;;;;;;;1.48;1.38;;;27.50;99.90;;;;;;5071672;28;20184;-79
2021/08/13 06:20:08;;;;;;;0.50;0.50;;;27.10;99.90;;;;;;5064164;28;20196;-78
2021/08/13 06:22:34;;;;;;;0.90;0.90;;;27.00;99.90;;;;;;5077812;28;20167;-78
2021/08/13 06:25:00;;;;;;;0.52;0.52;;;27.30;99.90;;;;;;5075133;28;20188;-77
2021/08/13 06:27:26;;;;;;;0.75;0.75;;;28.30;99.90;;;;;;5070335;28;20259;-77
2021/08/13 06:29:51;;;;;;;2.13;1.08;;;28.90;99.90;;;;;;5070619;28;20156;-75
2021/08/13 06:32:19;;;;;;;1.90;1.55;;;29.30;99.90;;;;;;5070902;28;20183;-79
2021/08/13 06:34:46;;;;;;;1.35;1.25;;;28.70;99.90;;;;;;5067532;28;20218;-76
2021/08/13 06:37:12;;;;;;;1.58;0.88;;;27.80;99.90;;;;;;5069228;28;20168;-76
2021/08/13 06:39:38;;;;;;;1.40;0.90;;;28.20;99.90;;;;;;5074816;28;20318;-78
2021/08/13 06:42:04;;;;;;;1.35;1.25;;;29.00;99.90;;;;;;5073875;28;20183;-75
2021/08/13 06:44:31;;;;;;;0.90;0.70;;;29.70;99.90;;;;;;5080602;28;20268;-76
2021/08/13 06:46:57;;;;;;;0.68;0.68;;;30.00;99.90;;;;;;5075961;28;20175;-77
2021/08/13 06:49:23;;;;;;;1.27;0.88;;;30.30;99.90;;;;;;5085087;28;20211;-75
2021/08/13 06:51:48;;;;;;;0.63;0.63;;;30.20;99.90;;;;;;5070624;28;20164;-75
2021/08/13 06:54:14;;;;;;;0.90;0.90;;;29.10;99.90;;;;;;5082447;28;20168;-75
2021/08/13 06:56:42;;;;;;;0.82;0.60;;;28.60;99.90;;;;;;5078834;28;20182;-75
2021/08/13 06:59:08;;;;;;;0.90;0.90;;;28.90;99.90;;;;;;5073544;28;20200;-76
2021/08/13 07:01:34;;;;;;;0.75;0.75;;;29.70;99.90;;;;;;5083357;28;20908;-76
2021/08/13 07:03:59;;;;;;;0.25;0.25;;;29.80;99.90;;;;;;5073327;28;20294;-75
2021/08/13 07:06:25;;;;;;;1.10;1.02;;;30.00;99.90;;;;;;5080530;28;20198;-75
2021/08/13 07:08:51;;;;;;;0.95;0.95;;;30.30;99.90;;;;;;5078901;28;20215;-75
2021/08/13 07:11:17;;;;;;;0.50;0.50;;;30.00;99.90;;;;;;5073596;28;20254;-75
2021/08/13 07:13:43;;;;;;;1.50;0.88;;;29.10;99.90;;;;;;5083330;28;20182;-75
2021/08/13 07:16:09;;;;;;;1.02;0.98;;;28.60;99.90;;;;;;5074035;28;20164;-75
2021/08/13 07:18:36;;;;;;;2.50;1.77;;;28.40;99.90;;;;;;5079352;28;20200;-75
2021/08/13 07:21:03;;;;;;;0.52;0.47;;;28.00;99.90;;;;;;5080230;28;20183;-75
2021/08/13 07:23:29;;;;;;;1.10;1.10;;;27.20;99.90;;;;;;5069847;28;20229;-75
2021/08/13 07:25:55;;;;;;;0.88;0.88;;;26.30;99.90;;;;;;5079584;28;20183;-75
2021/08/13 07:28:21;;;;;;;0.57;0.57;;;26.30;99.90;;;;;;5071447;28;20203;-75
2021/08/13 07:30:47;;;;;;;0.98;0.60;;;26.30;99.90;;;;;;5068471;28;20164;-76
2021/08/13 07:33:13;;;;;;;4.03;1.42;;;26.10;99.90;;;;;;5082240;28;20160;-76
2021/08/13 07:35:39;;;;;;;1.73;0.85;;;26.30;99.90;;;;;;5071301;28;20168;-76
2021/08/13 07:38:04;;;;;;;0.70;0.70;;;27.00;99.90;;;;;;5081291;28;20164;-75
2021/08/13 07:40:30;;;;;;;0.43;0.43;;;27.50;99.90;;;;;;5066851;28;20258;-76
2021/08/13 07:42:56;;;;;;;0.82;0.82;;;28.20;99.90;;;;;;5079161;28;20171;-74
2021/08/13 07:45:23;;;;;;;4.50;0.70;;;28.50;99.90;;;;;;5068309;28;20164;-74
2021/08/13 07:47:49;;;;;;;0.80;0.73;;;28.10;99.90;;;;;;5082791;28;20215;-74
2021/08/13 07:50:16;;;;;;;2.63;0.82;;;28.10;99.90;;;;;;5065290;28;20222;-74
2021/08/13 07:52:42;;;;;;;2.38;1.35;;;27.80;99.90;;;;;;5078500;28;20170;-74
2021/08/13 07:55:08;;;;;;;1.27;0.75;;;28.10;99.90;;;;;;5065674;28;20188;-75
2021/08/13 07:57:34;;;;;;;1.75;1.40;;;29.10;99.90;;;;;;5082517;28;20209;-75
2021/08/13 07:59:59;;;;;;;1.02;1.02;;;30.20;99.90;;;;;;5072431;28;20182;-75
2021/08/13 08:02:25;;;;;;;4.97;2.17;;;30.30;99.90;;;;;;5080826;28;20168;-75
2021/08/13 08:04:52;;;;;;;3.90;0.90;;;30.40;99.90;;;;;;5080679;28;20172;-75
2021/08/13 08:07:18;;;;;;;2.53;1.48;;;31.40;99.90;;;;;;5071941;28;20175;-75
2021/08/13 08:09:44;;;;;;;1.30;1.02;;;31.00;99.90;;;;;;5076912;28;20200;-75
2021/08/13 08:12:10;;;;;;;1.10;1.05;;;30.80;99.90;;;;;;5087394;28;20159;-75
2021/08/13 08:14:36;;;;;;;3.05;2.60;;;29.90;99.90;;;;;;5067845;28;20168;-75
2021/08/13 08:17:02;;;;;;;0.65;0.65;;;29.10;99.90;;;;;;5064143;28;20184;-75
2021/08/13 08:19:28;;;;;;;18.30;2.03;;;29.50;99.90;;;;;;5067387;28;20207;-76
2021/08/13 08:21:55;;;;;;;0.55;0.52;;;30.20;99.90;;;;;;5076657;28;20163;-76
2021/08/13 08:24:22;;;;;;;3.75;1.80;;;30.80;99.90;;;;;;5080452;28;20172;-74
2021/08/13 08:26:48;;;;;;;2.65;1.52;;;31.10;99.90;;;;;;5069851;28;20215;-74
2021/08/13 08:29:14;;;;;;;0.75;0.73;;;30.90;99.90;;;;;;5081763;28;20210;-75
2021/08/13 08:31:40;;;;;;;11.10;3.40;;;31.20;99.90;;;;;;5068664;28;20667;-74
2021/08/13 08:34:06;;;;;;;1.90;0.60;;;30.50;99.90;;;;;;5071155;28;20166;-74
2021/08/13 08:36:32;;;;;;;2.95;0.68;;;30.40;99.90;;;;;;5077940;28;20192;-75
2021/08/13 08:38:58;;;;;;;0.70;0.70;;;30.20;99.90;;;;;;5077728;28;20171;-75
2021/08/13 08:41:25;;;;;;;6.82;2.22;;;30.60;99.90;;;;;;5065332;28;20664;-74
2021/08/13 08:43:52;;;;;;;0.75;0.43;;;30.50;99.90;;;;;;5068142;28;20220;-76
2021/08/13 08:46:20;;;;;;;1.10;1.00;;;30.10;99.90;;;;;;5073287;28;20666;-73
2021/08/13 08:48:50;;;;;;;2.05;1.95;;;30.20;99.90;;;;;;5070227;28;20219;-73
2021/08/13 08:51:17;;;;;;;0.52;0.52;;;30.20;99.90;;;;;;5065057;28;20172;-75
2021/08/13 08:53:49;;;;;;;1.27;1.17;;;30.10;99.90;;;;;;5069299;28;20220;-74
2021/08/13 08:56:17;;;;;;;0.30;0.30;;;30.20;99.90;;;;;;5080112;28;20840;-76
2021/08/13 08:58:46;;;;;;;2.90;1.50;;;30.60;99.90;;;;;;5075546;28;20199;-78
2021/08/13 09:01:14;;;;;;;0.70;0.70;;;30.60;99.90;;;;;;5072290;28;20206;-77
2021/08/13 09:03:42;;;;;;;0.13;0.13;;;30.60;99.90;;;;;;5082198;28;20186;-78
2021/08/13 09:06:09;;;;;;;1.40;1.30;;;31.10;99.90;;;;;;5071027;28;20176;-78
2021/08/13 09:08:36;;;;;;;0.55;0.55;;;31.40;99.90;;;;;;5077508;28;20321;-81
2021/08/13 09:11:02;;;;;;;2.45;1.00;;;31.10;99.90;;;;;;5083404;28;20155;-75
2021/08/13 09:13:28;;;;;;;3.78;1.35;;;30.80;99.90;;;;;;5056783;28;20180;-75
2021/08/13 09:15:55;;;;;;;1.08;0.65;;;30.30;99.90;;;;;;5087391;28;20156;-76
2021/08/13 09:18:26;;;;;;;4.13;0.90;;;30.30;99.90;;;;;;5077521;28;20195;-74
2021/08/13 09:21:00;;;;;;;0.57;0.57;;;31.20;99.90;;;;;;5064129;28;20203;-75
2021/08/13 09:23:46;;;;;;;0.50;0.50;;;31.00;99.90;;;;;;5080970;28;20183;-75
2021/08/13 09:26:18;;;;;;;0.65;0.65;;;31.20;99.90;;;;;;5067099;28;20782;-76
2021/08/13 09:28:46;;;;;;;0.68;0.50;;;31.60;99.90;;;;;;5069278;28;20207;-76
2021/08/13 09:31:15;;;;;;;1.98;1.83;;;31.70;99.90;;;;;;5069663;28;20210;-75
2021/08/13 09:33:43;;;;;;;0.77;0.77;;;31.90;99.90;;;;;;5072149;28;20643;-76
2021/08/13 09:36:08;;;;;;;1.42;0.85;;;31.70;99.90;;;;;;5071184;28;20183;-76
2021/08/13 09:38:34;;;;;;;0.68;0.68;;;31.90;99.90;;;;;;5079419;28;20286;-75
2021/08/13 09:41:12;;;;;;;2.17;1.98;;;32.30;99.90;;;;;;5077156;28;20201;-75
2021/08/13 09:44:00;;;;;;;1.58;0.55;;;32.50;99.90;;;;;;5086396;28;20167;-76
2021/08/13 09:46:29;;;;;;;0.75;0.60;;;32.50;99.90;;;;;;5077982;28;20178;-76
2021/08/13 09:49:17;;;;;;;0.80;0.80;;;32.40;99.90;;;;;;5082342;28;20224;-76
2021/08/13 09:51:43;;;;;;;2.20;2.00;;;31.60;99.90;;;;;;5073063;28;20227;-75
2021/08/13 09:54:10;;;;;;;0.73;0.73;;;32.10;99.90;;;;;;5082079;28;20186;-75
2021/08/13 09:56:39;;;;;;;0.55;0.55;;;32.50;99.90;;;;;;5077449;28;20182;-75
2021/08/13 09:59:07;;;;;;;4.30;0.52;;;32.10;99.90;;;;;;5068361;28;20207;-75
2021/08/13 10:01:48;;;;;;;0.45;0.45;;;32.10;99.90;;;;;;5066086;28;20730;-75
2021/08/13 10:04:17;;;;;;;0.45;0.45;;;32.30;99.90;;;;;;5078781;28;20175;-76
2021/08/13 10:06:45;;;;;;;0.68;0.68;;;32.80;99.90;;;;;;5070090;28;20175;-75
2021/08/13 10:09:28;;;;;;;0.93;0.93;;;32.20;99.90;;;;;;5069437;28;20204;-75
2021/08/13 10:11:58;;;;;;;0.98;0.98;;;31.10;99.90;;;;;;5056612;28;20194;-73
2021/08/13 10:14:32;;;;;;;0.65;0.65;;;31.30;99.90;;;;;;5073645;28;20180;-73
2021/08/13 10:17:24;;;;;;;0.60;0.60;;;31.50;99.90;;;;;;5076384;28;20541;-74
2021/08/13 10:19:51;;;;;;;1.92;1.38;;;32.10;99.90;;;;;;5082428;28;20184;-74
2021/08/13 10:22:21;;;;;;;1.65;0.50;;;33.30;99.90;;;;;;5075984;28;20205;-74
2021/08/13 10:24:48;;;;;;;0.20;0.20;;;33.80;99.90;;;;;;5077548;28;20160;-74
2021/08/13 10:27:15;;;;;;;0.60;0.60;;;33.20;99.90;;;;;;5064781;28;20233;-75
2021/08/13 10:29:45;;;;;;;1.15;1.08;;;32.90;99.90;;;;;;5063753;28;20192;-76
2021/08/13 10:32:12;;;;;;;0.73;0.70;;;33.30;99.90;;;;;;5074933;28;20236;-75
2021/08/13 10:34:38;;;;;;;0.40;0.40;;;33.60;99.90;;;;;;5078528;28;20231;-76
2021/08/13 10:37:11;;;;;;;0.82;0.82;;;33.80;99.90;;;;;;5069428;28;20161;-76
2021/08/13 10:39:39;;;;;;;0.32;0.32;;;34.40;99.90;;;;;;5083589;28;20506;-75
2021/08/13 10:42:07;;;;;;;1.25;0.85;;;34.50;99.90;;;;;;5074701;28;20163;-76
2021/08/13 10:44:43;;;;;;;0.90;0.80;;;34.80;99.90;;;;;;5080268;28;20616;-77
2021/08/13 10:47:14;;;;;;;0.50;0.50;;;34.50;99.90;;;;;;5080449;28;20175;-74
2021/08/13 10:49:45;;;;;;;0.30;0.30;;;34.50;99.90;;;;;;5071331;28;20192;-76
2021/08/13 10:52:11;;;;;;;0.57;0.57;;;35.10;99.90;;;;;;5083122;28;20197;-74
2021/08/13 10:54:45;;;;;;;1.02;1.00;;;35.00;99.90;;;;;;5077683;28;20178;-74
2021/08/13 10:57:15;;;;;;;1.35;1.23;;;34.80;99.90;;;;;;5078484;28;20249;-75
2021/08/13 10:59:41;;;;;;;2.13;1.40;;;35.70;99.90;;;;;;5054090;28;20188;-74
2021/08/13 11:02:17;;;;;;;1.00;0.98;;;36.00;99.90;;;;;;5069164;28;20251;-74
2021/08/13 11:04:48;;;;;;;0.65;0.65;;;35.10;99.90;;;;;;5079559;28;20167;-74
2021/08/13 11:07:34;;;;;;;0.65;0.65;;;34.50;99.90;;;;;;5073092;28;20196;-74
2021/08/13 11:10:00;;;;;;;0.57;0.57;;;34.30;99.90;;;;;;5056455;28;20171;-74
2021/08/13 11:12:26;;;;;;;0.75;0.75;;;35.00;99.90;;;;;;5080804;28;20226;-73
2021/08/13 11:14:54;;;;;;;0.50;0.50;;;34.80;99.90;;;;;;5080409;28;20164;-75
2021/08/13 11:17:44;;;;;;;0.88;0.88;;;34.90;99.90;;;;;;5072125;28;20183;-75
2021/08/13 11:20:12;;;;;;;1.02;1.02;;;35.30;99.90;;;;;;5060642;28;20170;-75
2021/08/13 11:22:40;;;;;;;0.68;0.68;;;35.60;99.90;;;;;;5079143;28;20172;-75
2021/08/13 11:25:07;;;;;;;2.17;0.47;;;36.60;99.90;;;;;;5074035;28;20179;-74
2021/08/13 11:27:34;;;;;;;2.17;1.50;;;37.40;99.90;;;;;;5083118;28;20232;-74
2021/08/13 11:30:00;;;;;;;0.77;0.77;;;38.20;99.90;;;;;;5065526;28;20210;-74
2021/08/13 11:32:35;;;;;;;0.88;0.88;;;38.60;99.90;;;;;;5074152;28;20191;-76
2021/08/13 11:35:10;;;;;;;0.38;0.38;;;38.50;99.90;;;;;;5065923;28;20183;-74
2021/08/13 11:37:44;;;;;;;0.60;0.60;;;37.60;99.90;;;;;;5068244;28;20176;-76
2021/08/13 11:40:13;;;;;;;1.48;1.38;;;37.10;99.90;;;;;;5065632;28;20212;-74
2021/08/13 11:42:47;;;;;;;0.45;0.45;;;37.20;99.90;;;;;;5060681;28;20192;-74
2021/08/13 11:45:15;;;;;;;0.38;0.38;;;35.70;99.90;;;;;;5079741;28;20231;-74
2021/08/13 11:47:48;;;;;;;0.70;0.70;;;33.90;99.90;;;;;;5068960;28;20219;-74
2021/08/13 11:50:16;;;;;;;0.98;0.88;;;31.80;99.90;;;;;;5080328;28;20206;-73
2021/08/13 11:52:46;;;;;;;1.65;1.23;;;30.70;99.90;;;;;;5077621;28;20166;-73
2021/08/13 11:55:17;;;;;;;1.35;1.33;;;30.50;99.90;;;;;;5072857;28;20217;-73
2021/08/13 11:57:43;;;;;;;0.90;0.90;;;30.20;99.90;;;;;;5069086;28;20454;-73
2021/08/13 12:00:20;;;;;;;0.52;0.52;;;30.10;99.90;;;;;;5066708;28;20218;-73
2021/08/13 12:02:47;;;;;;;7.43;3.65;;;30.10;99.90;;;;;;5071821;28;20247;-73
2021/08/13 12:05:14;;;;;;;1.13;0.95;;;30.40;99.90;;;;;;5066720;28;20160;-73
2021/08/13 12:07:41;;;;;;;0.60;0.60;;;31.30;99.90;;;;;;5063411;28;20218;-77
2021/08/13 12:10:15;;;;;;;0.70;0.70;;;31.20;99.90;;;;;;5061379;28;20180;-75
2021/08/13 12:12:42;;;;;;;0.50;0.50;;;31.40;99.90;;;;;;5067074;28;20295;-76
2021/08/13 12:15:09;;;;;;;1.77;1.67;;;32.50;99.90;;;;;;5079811;28;20257;-75
2021/08/13 12:17:36;;;;;;;0.90;0.43;;;33.40;99.90;;;;;;5064656;28;20192;-76
2021/08/13 12:20:05;;;;;;;0.47;0.25;;;32.60;99.90;;;;;;5066943;28;20179;-75
2021/08/13 12:22:39;;;;;;;0.70;0.50;;;32.00;99.90;;;;;;5064897;28;20199;-74
2021/08/13 12:25:07;;;;;;;1.10;0.52;;;31.90;99.90;;;;;;5072305;28;20171;-76
2021/08/13 12:27:36;;;;;;;0.65;0.65;;;31.90;99.90;;;;;;5081609;28;20195;-75
2021/08/13 12:30:03;;;;;;;1.40;1.27;;;31.60;99.90;;;;;;5057730;28;20176;-75
2021/08/13 12:32:37;;;;;;;0.50;0.50;;;31.30;99.90;;;;;;5077773;28;20195;-75
2021/08/13 12:35:04;;;;;;;0.47;0.47;;;31.40;99.90;;;;;;5078754;28;20171;-76
2021/08/13 12:37:30;;;;;;;0.20;0.20;;;31.20;99.90;;;;;;5069906;28;20209;-75
2021/08/13 12:40:02;;;;;;;0.35;0.35;;;31.50;99.90;;;;;;5083276;28;20184;-77
2021/08/13 12:42:29;;;;;;;0.70;0.70;;;31.90;99.90;;;;;;5073739;28;20195;-77
2021/08/13 12:44:55;;;;;;;0.57;0.57;;;31.50;99.90;;;;;;5074123;28;20407;-76
2021/08/13 12:47:22;;;;;;;1.40;1.05;;;31.40;99.90;;;;;;5082362;28;20534;-77
2021/08/13 12:49:48;;;;;;;0.10;0.10;;;30.90;99.90;;;;;;5060778;28;20260;-76